createdAt,value
2017-08-23T00:01:51.955Z,4.60
2017-08-23T00:04:19.876Z,4.00
2017-08-23T00:06:47.442Z,4.50
2017-08-23T00:09:15.008Z,4.50
2017-08-23T00:11:42.630Z,4.20
2017-08-23T00:14:11.010Z,4.40
2017-08-23T00:16:38.599Z,4.70
2017-08-23T00:19:06.175Z,4.40
2017-08-23T00:21:33.771Z,4.43
2017-08-23T00:24:01.340Z,4.60
2017-08-23T00:26:29.326Z,4.70
2017-08-23T00:28:56.887Z,3.70
2017-08-23T00:31:24.471Z,4.10
2017-08-23T00:33:52.072Z,4.60
2017-08-23T00:36:19.627Z,3.83
2017-08-23T00:38:47.211Z,3.70
2017-08-23T00:41:14.765Z,4.00
2017-08-23T00:43:42.363Z,4.10
2017-08-23T00:46:09.937Z,4.50
2017-08-23T00:48:37.493Z,4.47
2017-08-23T00:51:05.101Z,5.47
2017-08-23T00:53:32.675Z,4.60
2017-08-23T00:56:00.265Z,4.37
2017-08-23T00:58:27.833Z,4.40
2017-08-23T01:00:55.431Z,4.43
2017-08-23T01:03:22.995Z,4.03
2017-08-23T01:05:50.892Z,3.70
2017-08-23T01:08:18.474Z,4.67
2017-08-23T01:10:46.059Z,4.73
2017-08-23T01:13:13.656Z,4.03
2017-08-23T01:15:41.213Z,3.87
2017-08-23T01:18:08.799Z,4.43
2017-08-23T01:20:36.433Z,3.57
2017-08-23T01:23:04.032Z,3.90
2017-08-23T01:25:31.599Z,3.50
2017-08-23T01:27:59.188Z,3.70
2017-08-23T01:30:26.758Z,3.67
2017-08-23T01:32:54.660Z,3.97
2017-08-23T01:35:22.259Z,4.17
2017-08-23T01:37:49.861Z,3.80
2017-08-23T01:40:17.470Z,3.33
2017-08-23T01:42:45.034Z,4.03
2017-08-23T01:45:12.659Z,3.50
2017-08-23T01:47:40.218Z,4.70
2017-08-23T01:50:07.794Z,4.50
2017-08-23T01:52:35.363Z,4.00
2017-08-23T01:55:03.293Z,4.20
2017-08-23T01:57:30.876Z,4.03
2017-08-23T01:59:58.842Z,4.00
2017-08-23T02:02:26.437Z,4.10
2017-08-23T02:04:54.093Z,4.60
2017-08-23T02:07:21.733Z,3.87
2017-08-23T02:09:49.297Z,4.47
2017-08-23T02:12:16.877Z,4.57
2017-08-23T02:14:44.442Z,4.67
2017-08-23T02:17:12.408Z,4.53
2017-08-23T02:19:39.992Z,4.50
2017-08-23T02:22:07.667Z,4.00
2017-08-23T02:24:35.242Z,3.93
2017-08-23T02:27:02.917Z,4.30
2017-08-23T02:29:30.754Z,4.10
2017-08-23T02:31:58.305Z,4.20
2017-08-23T02:34:25.864Z,4.50
2017-08-23T02:36:53.523Z,4.17
2017-08-23T02:39:21.109Z,4.17
2017-08-23T02:41:48.968Z,4.50
2017-08-23T02:44:16.547Z,3.57
2017-08-23T02:46:44.183Z,3.70
2017-08-23T02:49:11.780Z,5.13
2017-08-23T02:51:39.408Z,4.10
2017-08-23T02:54:07.280Z,4.87
2017-08-23T02:56:34.863Z,5.03
2017-08-23T02:59:02.463Z,4.30
2017-08-23T03:01:30.055Z,3.87
2017-08-23T03:03:57.617Z,4.27
2017-08-23T03:06:25.215Z,4.23
2017-08-23T03:08:52.823Z,4.40
2017-08-23T03:11:20.711Z,3.73
2017-08-23T03:13:48.281Z,3.90
2017-08-23T03:16:15.842Z,4.00
2017-08-23T03:18:43.503Z,4.10
2017-08-23T03:21:11.076Z,4.40
2017-08-23T03:23:38.679Z,4.33
2017-08-23T03:26:06.260Z,4.03
2017-08-23T03:28:34.113Z,4.33
2017-08-23T03:31:01.697Z,4.37
2017-08-23T03:33:29.262Z,4.23
2017-08-23T03:35:56.891Z,4.40
2017-08-23T03:38:24.545Z,4.00
2017-08-23T03:40:52.140Z,4.20
2017-08-23T03:43:19.703Z,4.17
2017-08-23T03:45:47.657Z,3.33
2017-08-23T03:48:15.293Z,4.40
2017-08-23T03:50:42.861Z,4.07
2017-08-23T03:53:10.460Z,4.50
2017-08-23T03:55:38.042Z,3.60
2017-08-23T03:58:05.633Z,5.20
2017-08-23T04:00:33.206Z,4.13
2017-08-23T04:03:01.183Z,4.13
2017-08-23T04:05:28.767Z,4.50
2017-08-23T04:07:56.357Z,4.70
2017-08-23T04:10:24.726Z,4.33
2017-08-23T04:12:53.070Z,4.93
2017-08-23T04:15:20.655Z,3.90
2017-08-23T04:17:48.221Z,4.10
2017-08-23T04:20:16.889Z,4.50
2017-08-23T04:22:44.451Z,4.33
2017-08-23T04:25:12.020Z,5.10
2017-08-23T04:27:40.375Z,4.60
2017-08-23T04:30:07.946Z,4.10
2017-08-23T04:32:35.542Z,4.27
2017-08-23T04:35:03.110Z,4.43
2017-08-23T04:37:31.000Z,4.93
2017-08-23T04:39:58.599Z,4.30
2017-08-23T04:42:26.211Z,5.00
2017-08-23T04:44:53.814Z,5.33
2017-08-23T04:47:21.394Z,4.57
2017-08-23T04:49:48.986Z,4.93
2017-08-23T04:52:16.584Z,3.90
2017-08-23T04:54:44.535Z,4.40
2017-08-23T04:57:12.117Z,4.20
2017-08-23T04:59:39.708Z,4.20
2017-08-23T05:02:07.297Z,4.93
2017-08-23T05:04:34.859Z,5.00
2017-08-23T05:07:02.453Z,5.27
2017-08-23T05:09:30.055Z,4.70
2017-08-23T05:11:57.954Z,4.40
2017-08-23T05:14:25.563Z,5.20
2017-08-23T05:16:53.326Z,4.87
2017-08-23T05:19:21.270Z,4.90
2017-08-23T05:21:48.844Z,5.60
2017-08-23T05:24:17.196Z,4.00
2017-08-23T05:26:44.771Z,5.07
2017-08-23T05:29:12.725Z,5.00
2017-08-23T05:31:40.311Z,5.23
2017-08-23T05:34:07.893Z,8.00
2017-08-23T05:36:35.502Z,5.50
2017-08-23T05:39:03.119Z,4.57
2017-08-23T05:41:30.703Z,5.40
2017-08-23T05:43:58.283Z,4.93
2017-08-23T05:46:26.141Z,5.20
2017-08-23T05:48:53.731Z,4.43
2017-08-23T05:51:22.152Z,4.50
2017-08-23T05:53:49.766Z,4.50
2017-08-23T05:56:17.344Z,3.70
2017-08-23T05:58:45.140Z,3.70
2017-08-23T06:01:12.782Z,3.43
2017-08-23T06:03:40.684Z,3.20
2017-08-23T06:06:08.264Z,3.43
2017-08-23T06:08:35.826Z,3.47
2017-08-23T06:11:03.446Z,3.27
2017-08-23T06:13:31.039Z,4.00
2017-08-23T06:15:58.675Z,3.40
2017-08-23T06:18:26.263Z,3.10
2017-08-23T06:20:54.191Z,3.53
2017-08-23T06:23:21.760Z,3.97
2017-08-23T06:25:49.330Z,3.53
2017-08-23T06:28:16.969Z,3.40
2017-08-23T06:30:44.545Z,3.17
2017-08-23T06:33:12.141Z,2.93
2017-08-23T06:35:39.703Z,3.00
2017-08-23T06:38:07.644Z,2.77
2017-08-23T06:40:35.216Z,2.60
2017-08-23T06:43:02.791Z,2.90
2017-08-23T06:45:30.393Z,2.30
2017-08-23T06:47:57.946Z,3.37
2017-08-23T06:50:25.529Z,3.30
2017-08-23T06:52:53.103Z,2.80
2017-08-23T06:55:20.984Z,2.83
2017-08-23T06:57:48.570Z,3.00
2017-08-23T07:00:16.151Z,2.57
2017-08-23T07:02:43.759Z,2.60
2017-08-23T07:05:11.345Z,3.03
2017-08-23T07:07:39.040Z,2.80
2017-08-23T07:10:06.607Z,2.53
2017-08-23T07:12:34.487Z,2.50
2017-08-23T07:15:02.087Z,2.80
2017-08-23T07:17:29.732Z,2.43
2017-08-23T07:19:57.340Z,2.77
2017-08-23T07:22:24.920Z,2.70
2017-08-23T07:24:52.535Z,2.57
2017-08-23T07:27:20.128Z,2.20
2017-08-23T07:29:48.024Z,2.67
2017-08-23T07:32:15.587Z,2.65
2017-08-23T07:34:43.155Z,2.20
2017-08-23T07:37:10.786Z,2.35
2017-08-23T07:39:38.375Z,2.65
2017-08-23T07:42:05.996Z,3.35
2017-08-23T07:44:33.580Z,2.53
2017-08-23T07:47:01.573Z,2.35
2017-08-23T07:49:29.139Z,2.47
2017-08-23T07:51:56.800Z,2.20
2017-08-23T07:54:24.403Z,2.15
2017-08-23T07:56:52.064Z,2.67
2017-08-23T07:59:19.888Z,2.28
2017-08-23T08:01:47.483Z,2.25
2017-08-23T08:04:15.373Z,2.97
2017-08-23T08:06:43.017Z,2.67
2017-08-23T08:09:10.596Z,2.90
2017-08-23T08:11:38.267Z,2.37
2017-08-23T08:14:05.858Z,2.05
2017-08-23T08:16:33.716Z,2.20
2017-08-23T08:19:01.289Z,2.45
2017-08-23T08:21:29.896Z,2.25
2017-08-23T08:23:57.454Z,2.10
2017-08-23T08:26:25.023Z,2.58
2017-08-23T08:28:52.615Z,2.35
2017-08-23T08:31:20.207Z,2.55
2017-08-23T08:33:47.795Z,2.17
2017-08-23T08:36:15.502Z,1.80
2017-08-23T08:38:43.367Z,2.08
2017-08-23T08:41:10.943Z,2.40
2017-08-23T08:43:38.511Z,2.58
2017-08-23T08:46:06.106Z,2.90
2017-08-23T08:48:33.634Z,2.20
2017-08-23T08:51:01.218Z,2.83
2017-08-23T08:53:28.805Z,2.10
2017-08-23T08:55:56.681Z,2.65
2017-08-23T08:58:24.264Z,2.85
2017-08-23T09:00:51.856Z,1.90
2017-08-23T09:03:19.472Z,2.50
2017-08-23T09:05:47.069Z,3.92
2017-08-23T09:08:15.414Z,2.22
2017-08-23T09:10:42.996Z,2.85
2017-08-23T09:13:10.935Z,2.95
2017-08-23T09:15:38.524Z,2.40
2017-08-23T09:18:06.113Z,2.67
2017-08-23T09:20:33.720Z,2.42
2017-08-23T09:23:01.320Z,2.05
2017-08-23T09:25:28.968Z,2.37
2017-08-23T09:27:56.560Z,2.37
2017-08-23T09:30:24.402Z,2.00
2017-08-23T09:32:51.984Z,2.65
2017-08-23T09:35:19.581Z,2.28
2017-08-23T09:37:47.180Z,2.12
2017-08-23T09:40:14.767Z,1.92
2017-08-23T09:42:42.367Z,2.47
2017-08-23T09:45:09.949Z,2.17
2017-08-23T09:47:37.942Z,2.80
2017-08-23T09:50:05.522Z,2.20
2017-08-23T09:52:33.102Z,2.42
2017-08-23T09:55:00.968Z,2.37
2017-08-23T09:57:28.569Z,2.45
2017-08-23T09:59:56.163Z,2.83
2017-08-23T10:02:23.744Z,2.10
2017-08-23T10:04:51.608Z,2.05
2017-08-23T10:07:19.199Z,2.80
2017-08-23T10:09:46.776Z,2.47
2017-08-23T10:12:15.140Z,2.15
2017-08-23T10:14:43.509Z,2.40
2017-08-23T10:17:11.118Z,2.65
2017-08-23T10:19:38.701Z,2.35
2017-08-23T10:22:06.282Z,2.47
2017-08-23T10:24:33.895Z,1.73
2017-08-23T10:27:01.501Z,2.08
2017-08-23T10:29:29.370Z,2.03
2017-08-23T10:31:56.952Z,2.42
2017-08-23T10:34:25.362Z,2.03
2017-08-23T10:36:53.110Z,2.10
2017-08-23T10:39:20.771Z,1.83
2017-08-23T10:41:48.683Z,2.00
2017-08-23T10:44:16.255Z,1.90
2017-08-23T10:46:43.834Z,2.45
2017-08-23T10:49:11.435Z,1.90
2017-08-23T10:51:39.047Z,2.47
2017-08-23T10:54:06.648Z,2.00
2017-08-23T10:56:34.218Z,2.10
2017-08-23T10:59:01.819Z,2.28
2017-08-23T11:01:29.392Z,1.70
2017-08-23T11:03:57.328Z,1.70
2017-08-23T11:06:24.927Z,1.87
2017-08-23T11:08:52.572Z,1.85
2017-08-23T11:11:20.185Z,1.70
2017-08-23T11:13:47.777Z,1.83
2017-08-23T11:16:15.577Z,2.37
2017-08-23T11:18:43.155Z,2.12
2017-08-23T11:21:11.055Z,1.85
2017-08-23T11:23:38.694Z,2.47
2017-08-23T11:26:06.283Z,2.42
2017-08-23T11:28:33.887Z,1.75
2017-08-23T11:31:02.247Z,2.00
2017-08-23T11:33:29.868Z,1.80
2017-08-23T11:35:57.439Z,1.98
2017-08-23T11:38:25.631Z,2.40
2017-08-23T11:40:53.207Z,1.77
2017-08-23T11:43:20.843Z,2.17
2017-08-23T11:45:48.471Z,1.95
2017-08-23T11:48:16.126Z,1.85
2017-08-23T11:50:43.727Z,1.75
2017-08-23T11:53:11.304Z,2.40
2017-08-23T11:55:39.148Z,1.85
2017-08-23T11:58:06.957Z,1.70
2017-08-23T12:00:34.543Z,1.80
2017-08-23T12:03:02.148Z,1.92
2017-08-23T12:05:29.739Z,1.98
2017-08-23T12:07:57.419Z,2.00
2017-08-23T12:10:25.013Z,1.65
2017-08-23T12:12:52.867Z,2.03
2017-08-23T12:15:20.422Z,1.90
2017-08-23T12:17:48.296Z,2.40
2017-08-23T12:20:15.904Z,1.87
2017-08-23T12:22:43.590Z,1.87
2017-08-23T12:25:11.227Z,2.17
2017-08-23T12:27:38.815Z,1.65
2017-08-23T12:30:06.703Z,2.70
2017-08-23T12:32:34.348Z,1.87
2017-08-23T12:35:01.924Z,1.92
2017-08-23T12:37:29.538Z,2.10
2017-08-23T12:39:57.194Z,2.03
2017-08-23T12:42:24.791Z,1.90
2017-08-23T12:44:52.379Z,2.30
2017-08-23T12:47:20.362Z,2.22
2017-08-23T12:49:48.717Z,1.90
2017-08-23T12:52:16.475Z,2.20
2017-08-23T12:54:44.080Z,2.40
2017-08-23T12:57:11.664Z,1.90
2017-08-23T12:59:39.272Z,1.87
2017-08-23T13:02:06.959Z,2.20
2017-08-23T13:04:34.948Z,2.20
2017-08-23T13:07:02.534Z,2.13
2017-08-23T13:09:30.148Z,2.77
2017-08-23T13:11:57.786Z,2.10
2017-08-23T13:14:25.376Z,2.30
2017-08-23T13:16:52.989Z,2.27
2017-08-23T13:19:20.648Z,2.23
2017-08-23T13:21:48.520Z,1.93
2017-08-23T13:24:16.108Z,2.10
2017-08-23T13:26:43.681Z,1.80
2017-08-23T13:29:12.157Z,1.93
2017-08-23T13:31:39.783Z,2.20
2017-08-23T13:34:07.371Z,2.77
2017-08-23T13:36:35.707Z,2.07
2017-08-23T13:39:03.963Z,2.13
2017-08-23T13:41:31.604Z,1.80
2017-08-23T13:43:59.184Z,2.20
2017-08-23T13:46:26.778Z,2.37
2017-08-23T13:48:54.403Z,1.60
2017-08-23T13:51:21.997Z,1.93
2017-08-23T13:53:49.567Z,1.87
2017-08-23T13:56:17.285Z,1.80
2017-08-23T13:58:44.882Z,1.60
2017-08-23T14:01:12.849Z,1.60
2017-08-23T14:03:40.435Z,2.23
2017-08-23T14:06:08.019Z,2.00
2017-08-23T14:08:35.624Z,1.93
2017-08-23T14:11:03.201Z,1.90
2017-08-23T14:13:30.800Z,1.97
2017-08-23T14:15:58.395Z,1.77
2017-08-23T14:18:26.340Z,2.20
2017-08-23T14:20:54.032Z,2.10
2017-08-23T14:23:21.646Z,2.17
2017-08-23T14:25:49.201Z,2.57
2017-08-23T14:28:16.886Z,2.07
2017-08-23T14:30:44.503Z,2.30
2017-08-23T14:33:12.174Z,2.10
2017-08-23T14:35:40.066Z,2.20
2017-08-23T14:38:07.693Z,2.63
2017-08-23T14:40:35.275Z,2.53
2017-08-23T14:43:02.886Z,2.70
2017-08-23T14:45:30.547Z,2.27
2017-08-23T14:47:58.254Z,2.10
2017-08-23T14:50:25.842Z,2.57
2017-08-23T14:52:53.739Z,2.70
2017-08-23T14:55:21.326Z,2.30
2017-08-23T14:57:49.009Z,2.23
2017-08-23T15:00:16.624Z,2.20
2017-08-23T15:02:44.221Z,2.80
2017-08-23T15:05:11.828Z,2.40
2017-08-23T15:07:39.505Z,1.90
2017-08-23T15:10:07.459Z,2.60
2017-08-23T15:12:35.111Z,2.47
2017-08-23T15:15:02.711Z,2.60
2017-08-23T15:17:30.329Z,2.47
2017-08-23T15:19:57.907Z,2.33
2017-08-23T15:22:25.537Z,2.13
2017-08-23T15:24:53.125Z,2.70
2017-08-23T15:27:21.323Z,2.60
2017-08-23T15:29:48.916Z,2.20
2017-08-23T15:32:16.502Z,2.80
2017-08-23T15:34:44.097Z,2.67
2017-08-23T15:37:11.836Z,3.33
2017-08-23T15:39:39.441Z,6.07
2017-08-23T15:42:07.019Z,5.20
2017-08-23T15:44:34.938Z,2.33
2017-08-23T15:47:02.550Z,3.60
2017-08-23T15:49:30.152Z,3.07
2017-08-23T15:51:57.753Z,2.57
2017-08-23T15:54:25.354Z,1.80
2017-08-23T15:56:52.961Z,2.60
2017-08-23T15:59:21.309Z,2.40
2017-08-23T16:01:48.927Z,2.67
2017-08-23T16:04:16.512Z,2.47
2017-08-23T16:06:44.405Z,3.20
2017-08-23T16:09:12.947Z,2.23
2017-08-23T16:11:40.532Z,2.50
2017-08-23T16:14:08.122Z,3.80
2017-08-23T16:16:35.739Z,2.90
2017-08-23T16:19:03.363Z,2.37
2017-08-23T16:21:30.939Z,2.53
2017-08-23T16:23:58.917Z,2.37
2017-08-23T16:26:26.507Z,2.30
2017-08-23T16:28:54.134Z,2.27
2017-08-23T16:31:21.733Z,1.90
2017-08-23T16:33:49.319Z,2.60
2017-08-23T16:36:16.972Z,2.57
2017-08-23T16:38:45.346Z,2.60
2017-08-23T16:41:13.288Z,2.40
2017-08-23T16:43:40.924Z,2.27
2017-08-23T16:46:08.495Z,2.50
2017-08-23T16:48:36.119Z,2.70
2017-08-23T16:51:04.726Z,2.60
2017-08-23T16:53:32.356Z,2.57
2017-08-23T16:55:59.928Z,2.67
2017-08-23T16:58:27.609Z,3.20
2017-08-23T17:00:55.270Z,3.50
2017-08-23T17:03:22.859Z,3.23
2017-08-23T17:05:50.468Z,2.93
2017-08-23T17:08:18.326Z,2.37
2017-08-23T17:10:46.379Z,2.60
2017-08-23T17:13:13.982Z,2.50
2017-08-23T17:15:41.578Z,2.77
2017-08-23T17:18:09.873Z,3.13
2017-08-23T17:20:37.482Z,2.93
2017-08-23T17:23:05.123Z,3.10
2017-08-23T17:25:32.806Z,3.17
2017-08-23T17:28:00.708Z,2.80
2017-08-23T17:30:28.304Z,2.87
2017-08-23T17:32:55.898Z,3.13
2017-08-23T17:35:23.478Z,3.10
2017-08-23T17:37:51.071Z,2.40
2017-08-23T17:40:19.059Z,2.87
2017-08-23T17:42:46.653Z,2.70
2017-08-23T17:45:14.236Z,3.33
2017-08-23T17:47:42.098Z,5.40
2017-08-23T17:50:09.790Z,3.37
2017-08-23T17:52:37.732Z,4.43
2017-08-23T17:55:05.329Z,4.37
2017-08-23T17:57:32.932Z,3.60
2017-08-23T18:00:00.679Z,2.50
2017-08-23T18:02:28.268Z,2.90
2017-08-23T18:04:56.202Z,3.20
2017-08-23T18:07:23.809Z,3.33
2017-08-23T18:09:51.414Z,3.80
2017-08-23T18:12:18.995Z,3.30
2017-08-23T18:14:46.594Z,3.73
2017-08-23T18:17:14.201Z,3.60
2017-08-23T18:19:41.785Z,3.47
2017-08-23T18:22:09.643Z,3.60
2017-08-23T18:24:37.221Z,3.60
2017-08-23T18:27:04.833Z,3.30
2017-08-23T18:29:32.514Z,3.00
2017-08-23T18:32:00.325Z,3.50
2017-08-23T18:34:28.106Z,3.80
2017-08-23T18:36:55.735Z,3.13
2017-08-23T18:39:23.356Z,3.00
2017-08-23T18:41:51.119Z,3.70
2017-08-23T18:44:18.718Z,4.00
2017-08-23T18:46:46.324Z,4.20
2017-08-23T18:49:16.279Z,3.83
2017-08-23T18:51:43.928Z,3.37
2017-08-23T18:54:11.592Z,3.73
2017-08-23T18:56:39.492Z,3.87
2017-08-23T18:59:07.071Z,4.17
2017-08-23T19:01:34.777Z,3.20
2017-08-23T19:04:02.669Z,4.20
2017-08-23T19:06:30.350Z,3.77
2017-08-23T19:08:57.909Z,3.43
2017-08-23T19:11:25.519Z,2.63
2017-08-23T19:13:53.183Z,3.30
2017-08-23T19:16:24.642Z,4.30
2017-08-23T19:18:52.272Z,3.90
2017-08-23T19:21:19.905Z,3.80
2017-08-23T19:23:47.549Z,3.83
2017-08-23T19:26:15.155Z,4.30
2017-08-23T19:28:46.036Z,3.87
2017-08-23T19:31:13.636Z,3.50
2017-08-23T19:33:42.288Z,3.90
2017-08-23T19:36:10.869Z,3.00
2017-08-23T19:38:40.711Z,3.23
2017-08-23T19:41:08.900Z,3.77
2017-08-23T19:43:36.688Z,3.33
2017-08-23T19:46:05.375Z,4.07
2017-08-23T19:48:32.970Z,4.00
2017-08-23T19:51:00.967Z,3.50
2017-08-23T19:53:28.602Z,4.20
2017-08-23T19:55:58.002Z,3.27
2017-08-23T19:58:25.813Z,3.87
2017-08-23T20:00:53.481Z,3.70
2017-08-23T20:03:21.347Z,4.00
2017-08-23T20:05:49.022Z,3.57
2017-08-23T20:08:26.953Z,3.87
2017-08-23T20:10:54.641Z,3.57
2017-08-23T20:13:22.232Z,3.70
2017-08-23T20:15:49.890Z,3.90
2017-08-23T20:18:17.581Z,4.30
2017-08-23T20:20:45.431Z,3.60
2017-08-23T20:23:13.012Z,3.80
2017-08-23T20:25:40.641Z,3.13
2017-08-23T20:28:08.388Z,4.00
2017-08-23T20:30:35.998Z,4.00
2017-08-23T20:33:04.036Z,3.70
2017-08-23T20:35:31.625Z,3.77
2017-08-23T20:37:59.254Z,3.50
2017-08-23T20:40:26.860Z,3.70
2017-08-23T20:42:54.628Z,4.10
2017-08-23T20:45:22.223Z,3.80
2017-08-23T20:47:49.798Z,4.30
2017-08-23T20:50:20.959Z,3.87
2017-08-23T20:52:48.547Z,4.40
2017-08-23T20:55:16.126Z,4.63
2017-08-23T20:57:43.842Z,4.90
2017-08-23T21:00:11.424Z,4.37
2017-08-23T21:02:39.031Z,4.30
2017-08-23T21:05:06.628Z,4.73
2017-08-23T21:07:34.497Z,4.93
2017-08-23T21:10:02.103Z,4.10
2017-08-23T21:12:29.665Z,4.63
2017-08-23T21:14:58.077Z,5.23
2017-08-23T21:17:25.803Z,4.70
2017-08-23T21:19:56.054Z,4.80
2017-08-23T21:22:24.207Z,5.20
2017-08-23T21:24:52.867Z,4.97
2017-08-23T21:27:20.452Z,4.70
2017-08-23T21:29:48.153Z,4.70
2017-08-23T21:32:15.757Z,5.73
2017-08-23T21:34:43.322Z,5.27
2017-08-23T21:37:10.965Z,4.70
2017-08-23T21:39:38.571Z,4.43
2017-08-23T21:42:06.584Z,4.70
2017-08-23T21:44:34.156Z,4.50
2017-08-23T21:47:01.798Z,4.73
2017-08-23T21:49:29.580Z,4.70
2017-08-23T21:51:57.282Z,6.10
2017-08-23T21:54:25.651Z,4.43
2017-08-23T21:56:53.426Z,5.83
2017-08-23T21:59:22.063Z,5.97
2017-08-23T22:01:51.023Z,4.80
2017-08-23T22:04:18.582Z,4.60
2017-08-23T22:06:50.157Z,4.90
2017-08-23T22:09:17.791Z,5.33
2017-08-23T22:11:45.394Z,4.40
2017-08-23T22:14:12.989Z,4.87
2017-08-23T22:16:40.840Z,5.17
2017-08-23T22:19:08.406Z,4.90
2017-08-23T22:21:35.975Z,5.30
2017-08-23T22:24:03.598Z,5.70
2017-08-23T22:26:31.169Z,5.60
2017-08-23T22:28:58.783Z,5.20
2017-08-23T22:31:31.947Z,4.70
2017-08-23T22:34:00.576Z,4.50
2017-08-23T22:36:28.133Z,5.20
2017-08-23T22:38:55.693Z,4.87
2017-08-23T22:41:23.851Z,5.40
2017-08-23T22:43:51.418Z,5.67
2017-08-23T22:46:19.765Z,6.07
2017-08-23T22:48:48.163Z,5.50
2017-08-23T22:51:16.136Z,5.37
2017-08-23T22:53:43.689Z,5.67
2017-08-23T22:56:11.351Z,5.57
2017-08-23T22:58:39.068Z,6.50
2017-08-23T23:01:06.686Z,7.43
2017-08-23T23:03:34.284Z,6.93
2017-08-23T23:06:01.857Z,6.30
2017-08-23T23:08:29.783Z,6.67
2017-08-23T23:10:57.425Z,7.10
2017-08-23T23:13:25.002Z,6.33
2017-08-23T23:15:52.616Z,6.40
2017-08-23T23:18:20.217Z,6.00
2017-08-23T23:20:47.801Z,6.00
2017-08-23T23:23:15.436Z,6.77
2017-08-23T23:25:43.525Z,5.57
2017-08-23T23:28:11.098Z,5.83
2017-08-23T23:30:38.678Z,6.70
2017-08-23T23:33:06.275Z,6.50
2017-08-23T23:35:33.867Z,5.97
2017-08-23T23:38:01.459Z,6.60
2017-08-23T23:40:29.804Z,6.37
2017-08-23T23:42:57.954Z,6.40
2017-08-23T23:45:25.602Z,6.20
2017-08-23T23:47:53.169Z,6.63
2017-08-23T23:50:20.803Z,6.33
2017-08-23T23:52:48.388Z,6.40
2017-08-23T23:55:15.968Z,5.77
2017-08-23T23:57:43.534Z,5.63
